Time;durP1;ratioP1;P1;durP2;ratioP2;P2;SDS_P1;SDS_P2;PMS_P1;PMS_P2;Temp;Humidity;BMP_temperature;BMP_pressure;BME280_temperature;BME280_humidity;BME280_pressure;Samples;Min_cycle;Max_cycle;Signal;HPM_P1;HPM_P2
2022/08/20 00:00:20;;;;;;;31.38;16.67;;;;;;;20.17;36.90;100429.78;5034892;28;20077;-69
2022/08/20 00:02:56;;;;;;;37.03;19.13;;;;;;;20.17;37.26;100429.78;5034328;28;20064;-69
2022/08/20 00:05:32;;;;;;;33.58;18.20;;;;;;;20.12;37.54;100432.88;5033854;28;20065;-69
2022/08/20 00:08:02;;;;;;;38.53;18.45;;;;;;;20.06;37.61;100428.72;5034158;28;20141;-69
2022/08/20 00:10:32;;;;;;;29.38;17.38;;;;;;;20.02;37.93;100440.78;5033717;28;20508;-68
2022/08/20 00:13:00;;;;;;;36.80;16.90;;;;;;;19.96;38.27;100435.81;5017774;28;20057;-69
2022/08/20 00:15:32;;;;;;;31.48;16.52;;;;;;;19.95;38.70;100426.53;5014433;28;20077;-69
2022/08/20 00:17:59;;;;;;;39.65;19.15;;;;;;;19.96;38.91;100433.00;5013795;28;20513;-68
2022/08/20 00:20:29;;;;;;;29.15;16.70;;;;;;;19.94;39.25;100430.56;5013831;28;20058;-70
2022/08/20 00:22:56;;;;;;;36.25;16.63;;;;;;;19.90;39.47;100445.78;4995927;28;20517;-69
2022/08/20 00:25:25;;;;;;;39.83;16.95;;;;;;;19.86;39.94;100437.25;5013229;28;20053;-69
2022/08/20 00:27:52;;;;;;;28.27;15.20;;;;;;;19.78;40.00;100441.09;5013859;28;20061;-68
2022/08/20 00:30:19;;;;;;;31.85;16.95;;;;;;;19.76;40.66;100439.84;5013833;28;20065;-69
2022/08/20 00:32:53;;;;;;;32.92;15.73;;;;;;;19.70;40.74;100442.16;5013882;28;20065;-69
2022/08/20 00:35:22;;;;;;;30.13;15.75;;;;;;;19.69;40.92;100440.50;5014126;28;20138;-69
2022/08/20 00:37:49;;;;;;;23.38;14.43;;;;;;;19.64;41.06;100440.00;4996310;28;20062;-68
2022/08/20 00:40:23;;;;;;;33.63;15.70;;;;;;;19.64;41.14;100437.19;5002759;28;20050;-72
2022/08/20 00:42:54;;;;;;;31.48;15.00;;;;;;;19.62;41.20;100437.53;4994160;28;20062;-73
2022/08/20 00:45:21;;;;;;;32.28;16.73;;;;;;;19.62;41.15;100436.72;5016984;28;20068;-72
2022/08/20 00:47:48;;;;;;;38.35;18.77;;;;;;;19.60;41.58;100437.09;5033316;28;20049;-73
2022/08/20 00:50:27;;;;;;;36.63;17.05;;;;;;;19.54;41.49;100443.44;5033261;28;20077;-73
2022/08/20 00:52:54;;;;;;;30.77;17.20;;;;;;;19.50;41.78;100440.53;5033098;28;20126;-73
2022/08/20 00:55:24;;;;;;;28.88;16.40;;;;;;;19.46;42.10;100433.16;5033168;28;20054;-73
2022/08/20 00:58:00;;;;;;;29.35;16.25;;;;;;;19.40;42.22;100438.28;5033052;28;20053;-73
2022/08/20 01:00:38;;;;;;;38.92;14.95;;;;;;;19.39;42.43;100433.81;5031301;28;20451;-72
2022/08/20 01:03:08;;;;;;;26.42;15.93;;;;;;;19.32;42.48;100444.97;4996023;28;20072;-73
2022/08/20 01:05:37;;;;;;;32.25;15.55;;;;;;;19.31;42.53;100442.50;5013281;28;20516;-72
2022/08/20 01:08:04;;;;;;;24.80;14.10;;;;;;;19.29;42.62;100434.41;5013246;28;20061;-72
2022/08/20 01:10:37;;;;;;;24.40;15.35;;;;;;;19.30;42.50;100441.69;5013381;28;20049;-72
2022/08/20 01:13:10;;;;;;;25.55;14.13;;;;;;;19.29;42.66;100456.97;4996331;28;20065;-69
2022/08/20 01:15:40;;;;;;;27.00;15.70;;;;;;;19.26;42.75;100439.94;4993576;28;20062;-69
2022/08/20 01:18:14;;;;;;;28.05;14.48;;;;;;;19.20;42.87;100441.41;4993257;28;20082;-69
2022/08/20 01:20:57;;;;;;;33.08;15.50;;;;;;;19.16;43.25;100446.94;4993447;28;20054;-68
2022/08/20 01:23:53;;;;;;;27.08;13.13;;;;;;;19.11;43.04;100440.78;4993358;28;20058;-70
2022/08/20 01:26:30;;;;;;;27.27;14.98;;;;;;;19.04;43.40;100455.53;4965838;28;20066;-69
2022/08/20 01:29:09;;;;;;;22.58;13.27;;;;;;;19.00;43.43;100442.53;4993315;28;20465;-69
2022/08/20 01:31:38;;;;;;;25.60;14.13;;;;;;;18.94;43.56;100449.66;4993113;28;20474;-68
2022/08/20 01:34:09;;;;;;;23.58;13.65;;;;;;;18.93;43.51;100464.94;4994115;28;20058;-68
2022/08/20 01:36:38;;;;;;;22.75;13.43;;;;;;;18.87;43.82;100455.94;4992798;28;20062;-69
2022/08/20 01:39:14;;;;;;;25.00;13.82;;;;;;;18.84;43.88;100451.03;4981053;28;20103;-67
2022/08/20 01:41:44;;;;;;;33.05;12.98;;;;;;;18.81;43.82;100456.59;5032317;28;20058;-68
2022/08/20 01:44:12;;;;;;;25.13;12.43;;;;;;;18.78;44.04;100451.69;5032357;28;20075;-69
2022/08/20 01:46:46;;;;;;;23.63;12.68;;;;;;;18.75;44.14;100472.13;5032521;28;20061;-69
2022/08/20 01:49:22;;;;;;;20.38;11.55;;;;;;;18.70;44.02;100449.84;5032393;28;20054;-69
2022/08/20 01:51:53;;;;;;;26.38;12.13;;;;;;;18.66;44.13;100449.78;5013647;28;20058;-70
2022/08/20 01:54:21;;;;;;;19.98;10.45;;;;;;;18.61;44.26;100447.22;5012403;28;20449;-69
2022/08/20 01:57:03;;;;;;;16.88;10.68;;;;;;;18.61;44.14;100455.69;5012325;28;20457;-68
2022/08/20 01:59:30;;;;;;;22.58;10.70;;;;;;;18.57;43.96;100451.16;5012699;28;20851;-69
2022/08/20 02:01:58;;;;;;;19.95;10.55;;;;;;;18.58;44.05;100447.97;4999114;28;20050;-75
2022/08/20 02:04:26;;;;;;;18.13;10.25;;;;;;;18.55;44.07;100447.88;4975923;28;20153;-73
2022/08/20 02:06:56;;;;;;;22.73;10.40;;;;;;;18.55;43.97;100451.50;4993633;28;20059;-73
2022/08/20 02:09:31;;;;;;;21.77;9.32;;;;;;;18.60;43.89;100454.06;4993012;28;20149;-73
2022/08/20 02:11:59;;;;;;;18.08;9.35;;;;;;;18.58;43.96;100464.88;5000599;28;20060;-74
2022/08/20 02:14:27;;;;;;;23.25;9.70;;;;;;;18.58;43.59;100459.25;5012250;28;20054;-73
2022/08/20 02:16:57;;;;;;;23.65;9.82;;;;;;;18.59;43.59;100460.06;5012208;28;20058;-73
2022/08/20 02:19:40;;;;;;;17.40;9.27;;;;;;;18.63;43.50;100460.97;5009887;28;20149;-74
2022/08/20 02:22:19;;;;;;;17.60;8.38;;;;;;;18.57;43.49;100463.25;5012153;28;20061;-74
2022/08/20 02:24:47;;;;;;;17.30;8.30;;;;;;;18.53;43.60;100472.78;5012719;28;20488;-74
2022/08/20 02:27:14;;;;;;;13.55;7.85;;;;;;;18.53;43.47;100476.41;5012336;28;20575;-74
2022/08/20 02:29:42;;;;;;;13.43;8.20;;;;;;;18.51;43.53;100456.25;5012388;28;20433;-73
2022/08/20 02:32:10;;;;;;;15.80;7.38;;;;;;;18.51;43.48;100461.88;5012031;28;20053;-74
2022/08/20 02:34:56;;;;;;;13.85;6.90;;;;;;;18.50;43.75;100473.53;5012430;28;20065;-74
2022/08/20 02:37:23;;;;;;;15.32;7.13;;;;;;;18.48;43.59;100464.59;5012209;28;20064;-74
2022/08/20 02:39:50;;;;;;;17.45;6.45;;;;;;;18.48;43.65;100471.06;5011963;28;20045;-73
2022/08/20 02:42:17;;;;;;;20.92;7.03;;;;;;;18.50;43.56;100468.69;5012167;28;20062;-73
2022/08/20 02:44:44;;;;;;;16.10;7.30;;;;;;;18.50;43.56;100476.34;5012314;28;20509;-72
2022/08/20 02:47:11;;;;;;;15.75;6.03;;;;;;;18.45;43.56;100477.44;5013245;28;20073;-74
2022/08/20 02:49:37;;;;;;;12.75;6.18;;;;;;;18.44;43.64;100474.97;5013998;28;20534;-73
2022/08/20 02:52:04;;;;;;;11.75;6.30;;;;;;;18.44;43.77;100480.59;4995993;28;20112;-74
2022/08/20 02:54:31;;;;;;;16.67;7.43;;;;;;;18.43;43.70;100476.13;4996366;28;20054;-74
2022/08/20 02:56:58;;;;;;;11.15;6.15;;;;;;;18.45;43.63;100483.06;4996129;28;20492;-73
2022/08/20 02:59:25;;;;;;;15.07;8.82;;;;;;;18.48;43.51;100481.50;4995607;28;20054;-74
2022/08/20 03:01:52;;;;;;;17.38;8.23;;;;;;;18.52;43.48;100473.94;4995999;28;20054;-74
2022/08/20 03:04:30;;;;;;;27.58;13.65;;;;;;;18.55;43.00;100467.59;4994255;28;20100;-74
2022/08/20 03:06:57;;;;;;;21.20;12.80;;;;;;;18.59;43.14;100472.13;4995664;28;20057;-74
2022/08/20 03:09:24;;;;;;;32.13;13.27;;;;;;;18.63;42.90;100478.72;4994304;28;20156;-74
2022/08/20 03:11:51;;;;;;;29.58;16.15;;;;;;;18.66;42.91;100477.16;5002663;28;20104;-73
2022/08/20 03:14:18;;;;;;;33.58;19.15;;;;;;;18.69;42.89;100477.25;5014170;28;20085;-69
2022/08/20 03:16:45;;;;;;;42.10;22.85;;;;;;;18.68;42.75;100475.59;5013679;28;20079;-69
2022/08/20 03:19:12;;;;;;;48.47;23.42;;;;;;;18.70;42.99;100478.88;4997731;28;20061;-70
2022/08/20 03:21:39;;;;;;;49.13;24.70;;;;;;;18.73;42.93;100488.59;4995632;28;20413;-69
2022/08/20 03:24:06;;;;;;;52.35;25.25;;;;;;;18.73;43.15;100478.16;4995516;28;20058;-70
2022/08/20 03:26:33;;;;;;;45.92;26.85;;;;;;;18.74;42.97;100482.59;4995426;28;20109;-69
2022/08/20 03:29:00;;;;;;;48.25;26.30;;;;;;;18.82;42.91;100487.22;4996148;28;20090;-69
2022/08/20 03:31:28;;;;;;;53.95;27.92;;;;;;;18.88;42.75;100484.94;4995317;28;20050;-69
2022/08/20 03:33:55;;;;;;;49.33;26.05;;;;;;;18.90;42.75;100477.78;4995186;28;20593;-69
2022/08/20 03:36:25;;;;;;;47.20;28.30;;;;;;;18.94;42.79;100489.94;4995304;28;20058;-70
2022/08/20 03:38:59;;;;;;;52.05;28.88;;;;;;;18.95;42.72;100477.47;4994364;28;20054;-69
2022/08/20 03:41:27;;;;;;;49.95;26.08;;;;;;;18.99;42.87;100483.22;4976026;28;20059;-69
2022/08/20 03:43:54;;;;;;;47.58;25.17;;;;;;;19.06;42.61;100489.84;4975741;28;20457;-70
2022/08/20 03:46:21;;;;;;;44.67;23.67;;;;;;;19.07;42.86;100477.38;4958060;28;20518;-73
2022/08/20 03:48:53;;;;;;;43.90;24.73;;;;;;;19.11;42.63;100483.09;4975680;28;20545;-71
2022/08/20 03:51:30;;;;;;;44.10;24.20;;;;;;;19.14;42.60;100480.38;4993316;28;20461;-73
2022/08/20 03:54:19;;;;;;;44.42;22.17;;;;;;;19.17;42.58;100493.75;4994717;28;20054;-73
2022/08/20 03:56:46;;;;;;;38.75;20.75;;;;;;;19.15;42.71;100478.34;4978093;28;20410;-73
2022/08/20 03:59:13;;;;;;;43.65;23.13;;;;;;;19.21;42.52;100491.81;4977572;28;20069;-72
2022/08/20 04:01:40;;;;;;;36.53;21.40;;;;;;;19.31;42.41;100487.66;4994776;28;20054;-72
2022/08/20 04:04:13;;;;;;;35.00;19.52;;;;;;;19.39;42.21;100495.09;4994507;28;20157;-72
2022/08/20 04:06:40;;;;;;;29.60;17.20;;;;;;;19.40;42.12;100486.25;4994839;28;20054;-71
2022/08/20 04:09:09;;;;;;;33.38;17.10;;;;;;;19.41;42.16;100487.88;4994409;28;20093;-72
2022/08/20 04:11:38;;;;;;;32.10;17.58;;;;;;;19.51;42.02;100492.16;4994386;28;20501;-72
2022/08/20 04:14:05;;;;;;;35.95;16.95;;;;;;;19.54;41.56;100497.84;4994377;28;20066;-72
2022/08/20 04:16:32;;;;;;;33.53;17.30;;;;;;;19.45;41.65;100493.63;4994575;28;20064;-73
2022/08/20 04:19:02;;;;;;;31.63;18.02;;;;;;;19.41;41.82;100496.34;4994217;28;20082;-68
2022/08/20 04:21:31;;;;;;;30.95;16.38;;;;;;;19.45;41.68;100511.34;4994312;28;20402;-69
2022/08/20 04:23:59;;;;;;;;;;;;;;;19.40;41.80;100494.72;4994601;28;20142;-69
2022/08/20 04:26:26;;;;;;;31.55;16.42;;;;;;;19.54;41.37;100497.84;4994402;28;20385;-69
2022/08/20 04:28:54;;;;;;;32.60;17.38;;;;;;;19.68;41.37;100497.34;4994060;28;20429;-70
2022/08/20 04:31:32;;;;;;;38.13;17.95;;;;;;;19.79;41.01;100492.75;4994205;28;20058;-69
2022/08/20 04:34:01;;;;;;;29.35;15.90;;;;;;;19.92;40.78;100480.94;4976849;28;20066;-68
2022/08/20 04:36:28;;;;;;;39.72;16.73;;;;;;;20.06;40.43;100485.22;4994263;28;20162;-70
2022/08/20 04:38:55;;;;;;;33.20;17.80;;;;;;;20.11;40.13;100487.75;4993664;28;20057;-68
2022/08/20 04:41:22;;;;;;;34.05;17.13;;;;;;;20.12;39.74;100495.84;4994096;28;20437;-69
2022/08/20 04:43:54;;;;;;;31.15;17.02;;;;;;;20.05;39.91;100483.59;4993803;28;20422;-70
2022/08/20 04:46:26;;;;;;;32.53;16.65;;;;;;;20.10;40.08;100484.09;4994018;28;20058;-69
2022/08/20 04:48:54;;;;;;;38.55;15.93;;;;;;;20.13;40.16;100482.59;4994048;28;20069;-69
2022/08/20 04:51:21;;;;;;;32.95;16.23;;;;;;;20.28;40.23;100498.63;4994119;28;20057;-69
2022/08/20 04:53:49;;;;;;;30.63;16.15;;;;;;;20.35;39.61;100493.09;4993584;28;20160;-69
2022/08/20 04:56:22;;;;;;;31.73;14.35;;;;;;;20.32;39.50;100493.84;4993803;28;20070;-69
2022/08/20 04:58:51;;;;;;;31.20;14.38;;;;;;;20.29;39.27;100506.72;4993522;28;20058;-70
2022/08/20 05:01:18;;;;;;;30.35;14.23;;;;;;;20.18;39.31;100494.41;4987119;28;20058;-69
2022/08/20 05:03:48;;;;;;;36.80;12.75;;;;;;;20.13;39.34;100482.59;4974100;28;20054;-74
2022/08/20 05:06:16;;;;;;;28.48;13.45;;;;;;;20.27;38.88;100492.16;4974056;28;20109;-74
2022/08/20 05:08:44;;;;;;;29.50;12.57;;;;;;;20.36;38.57;100483.41;4974126;28;20082;-73
2022/08/20 05:11:13;;;;;;;25.02;13.05;;;;;;;20.45;38.04;100486.81;4982011;28;20062;-74
2022/08/20 05:14:00;;;;;;;32.95;12.98;;;;;;;20.46;37.96;100500.59;4993385;28;20062;-75
2022/08/20 05:16:27;;;;;;;21.23;11.05;;;;;;;20.46;37.74;100494.13;4976383;28;20505;-74
2022/08/20 05:18:53;;;;;;;26.38;11.80;;;;;;;20.46;37.54;100486.44;5007603;28;20429;-74
2022/08/20 05:21:20;;;;;;;25.73;12.63;;;;;;;20.49;37.58;100499.03;5013261;28;20057;-74
2022/08/20 05:23:47;;;;;;;23.08;11.50;;;;;;;20.56;37.27;100493.50;5012892;28;20058;-76
2022/08/20 05:26:15;;;;;;;30.20;12.68;;;;;;;20.56;37.11;100527.41;5013091;28;20160;-75
2022/08/20 05:28:44;;;;;;;24.73;12.38;;;;;;;20.57;37.10;100509.28;5012947;28;20053;-74
2022/08/20 05:31:26;;;;;;;24.52;11.13;;;;;;;20.74;36.51;100489.81;5012768;28;20124;-75
2022/08/20 05:34:08;;;;;;;23.52;12.07;;;;;;;20.74;36.72;100522.91;5012730;28;20085;-74
2022/08/20 05:36:48;;;;;;;30.10;21.42;;;;;;;20.59;36.74;100510.53;5012952;28;20100;-75
2022/08/20 05:39:17;;;;;;;23.20;12.18;;;;;;;20.53;36.98;100516.88;5012583;28;20081;-76
2022/08/20 05:41:44;;;;;;;20.40;11.77;;;;;;;20.46;37.11;100511.09;5012647;28;20141;-74
2022/08/20 05:44:14;;;;;;;23.05;11.02;;;;;;;20.44;37.25;100513.47;5012429;28;20115;-75
2022/08/20 05:46:42;;;;;;;;;;;;;;;20.29;37.55;100500.25;5013637;28;20060;-75
2022/08/20 05:49:12;;;;;;;25.20;11.65;;;;;;;20.28;37.37;100521.25;5012919;28;19933;-74
2022/08/20 05:51:39;;;;;;;23.00;12.45;;;;;;;20.20;37.58;100508.16;4981360;28;20552;-74
2022/08/20 05:54:06;;;;;;;29.60;13.27;;;;;;;20.17;37.70;100520.19;4992642;28;20050;-74
2022/08/20 05:56:33;;;;;;;34.13;11.93;;;;;;;20.19;37.70;100515.81;4993141;28;20064;-74
2022/08/20 05:59:02;;;;;;;22.55;12.38;;;;;;;20.25;37.60;100530.47;4975387;28;20054;-74
2022/08/20 06:01:34;;;;;;;29.42;13.23;;;;;;;20.24;37.37;100532.47;5009337;28;20065;-75
2022/08/20 06:06:50;;;;;;;24.77;10.68;;;;;;;20.26;37.65;100520.78;5012094;28;20068;-75
2022/08/20 06:09:19;;;;;;;23.70;9.60;;;;;;;20.24;37.87;100514.69;4995107;28;20064;-75
2022/08/20 06:12:03;;;;;;;19.48;10.23;;;;;;;20.28;37.69;100504.28;5004603;28;20054;-69
2022/08/20 06:14:31;;;;;;;20.60;10.05;;;;;;;20.33;37.90;100518.09;4993134;28;20121;-72
2022/08/20 06:17:11;;;;;;;27.98;9.65;;;;;;;20.33;37.82;100509.59;4992703;28;20059;-72
2022/08/20 06:19:39;;;;;;;14.65;8.88;;;;;;;20.36;37.74;100518.16;4973783;28;20066;-72
2022/08/20 06:22:10;;;;;;;28.77;8.45;;;;;;;20.41;37.78;100515.03;4974355;28;20054;-72
2022/08/20 06:24:53;;;;;;;16.65;8.38;;;;;;;20.55;37.41;100525.78;4977325;28;20055;-72
2022/08/20 06:27:21;;;;;;;17.00;8.48;;;;;;;20.71;36.97;100507.53;4977062;28;20067;-73
2022/08/20 06:29:49;;;;;;;19.55;7.68;;;;;;;20.82;36.67;100505.69;4977068;28;20077;-72
2022/08/20 06:32:17;;;;;;;19.33;8.13;;;;;;;21.13;36.19;100530.91;4976665;28;20063;-73
2022/08/20 06:34:44;;;;;;;19.73;7.32;;;;;;;21.22;35.61;100516.47;4976980;28;20153;-73
2022/08/20 06:37:20;;;;;;;22.02;7.45;;;;;;;21.33;35.06;100509.81;4976877;28;20063;-73
2022/08/20 06:39:47;;;;;;;32.45;8.30;;;;;;;21.37;34.99;100518.34;4976550;28;20114;-72
2022/08/20 06:42:14;;;;;;;11.70;6.70;;;;;;;21.51;34.79;100507.22;4977109;28;20110;-72
2022/08/20 06:44:49;;;;;;;16.55;7.25;;;;;;;22.18;33.46;100525.16;4977017;28;20101;-71
2022/08/20 06:47:18;;;;;;;16.40;6.63;;;;;;;22.43;32.77;100510.06;4976759;28;20061;-72
2022/08/20 06:49:46;;;;;;;26.47;6.03;;;;;;;23.13;31.56;100496.56;4982017;28;20058;-72
2022/08/20 06:52:15;;;;;;;14.35;6.13;;;;;;;23.31;31.16;100491.88;4995891;28;20061;-72
2022/08/20 06:54:43;;;;;;;;;;;;;;;23.14;31.32;100495.34;4978984;28;20080;-73
2022/08/20 06:57:10;;;;;;;11.07;5.47;;;;;;;22.95;31.14;100491.94;4978069;28;20396;-69
2022/08/20 06:59:37;;;;;;;25.60;5.88;;;;;;;22.76;30.90;100504.34;4996012;28;20145;-68
2022/08/20 07:02:04;;;;;;;14.85;6.40;;;;;;;22.34;31.26;100484.03;4995354;28;20058;-69
2022/08/20 07:04:31;;;;;;;18.92;6.20;;;;;;;22.15;31.80;100487.06;4996020;28;20096;-69
2022/08/20 07:06:58;;;;;;;18.83;5.47;;;;;;;22.06;32.00;100475.22;4995998;28;20058;-68
2022/08/20 07:09:27;;;;;;;10.30;5.68;;;;;;;22.19;32.21;100470.09;4996109;28;20062;-67
2022/08/20 07:11:54;;;;;;;13.68;5.03;;;;;;;22.28;32.16;100474.25;4995716;28;20077;-69
2022/08/20 07:14:21;;;;;;;12.77;4.80;;;;;;;22.48;32.07;100472.84;4995329;28;20070;-68
2022/08/20 07:16:49;;;;;;;12.50;5.45;;;;;;;22.47;31.80;100476.88;4995483;28;20062;-69
2022/08/20 07:19:16;;;;;;;24.38;6.68;;;;;;;22.39;31.79;100471.53;5010561;28;20084;-69
2022/08/20 07:21:43;;;;;;;12.73;4.53;;;;;;;22.22;31.93;100481.47;5015015;28;20515;-68
2022/08/20 07:24:11;;;;;;;12.13;4.57;;;;;;;22.15;32.04;100469.25;5014969;28;20089;-69
2022/08/20 07:26:38;;;;;;;11.60;4.57;;;;;;;22.10;32.15;100481.75;5015220;28;20058;-69
2022/08/20 07:29:05;;;;;;;10.30;4.43;;;;;;;21.87;32.20;100475.38;5015054;28;20057;-68
2022/08/20 07:34:18;;;;;;;12.40;4.75;;;;;;;21.54;32.47;100470.47;5014416;28;20061;-68
2022/08/20 07:36:47;;;;;;;16.05;5.38;;;;;;;21.51;32.61;100461.91;5014816;28;20061;-69
2022/08/20 07:39:14;;;;;;;12.53;5.33;;;;;;;21.42;32.97;100464.22;5014589;28;20057;-70
2022/08/20 07:41:42;;;;;;;13.02;4.35;;;;;;;21.40;33.05;100452.47;5014812;28;20068;-69
2022/08/20 07:44:22;;;;;;;;;;;;;;;21.26;33.09;100461.56;5015022;28;20057;-69
2022/08/20 07:47:01;;;;;;;11.50;4.68;;;;;;;21.25;33.14;100459.94;5031610;28;19967;-69
2022/08/20 07:49:28;;;;;;;12.65;4.78;;;;;;;21.23;32.85;100467.19;5013669;28;20397;-70
2022/08/20 07:51:55;;;;;;;23.33;5.78;;;;;;;21.36;32.86;100499.72;5014598;28;20127;-68
2022/08/20 07:54:23;;;;;;;16.52;5.10;;;;;;;21.49;32.64;100478.47;5014446;28;20050;-69
2022/08/20 07:56:52;;;;;;;11.35;4.25;;;;;;;21.91;31.99;100487.59;5014674;28;20420;-69
2022/08/20 07:59:20;;;;;;;;;;;;;;;21.90;32.15;100476.66;5014542;28;20083;-68
2022/08/20 08:01:47;;;;;;;10.90;4.53;;;;;;;21.84;32.27;100475.34;5014078;28;20008;-69
2022/08/20 08:04:14;;;;;;;16.15;8.55;;;;;;;21.80;32.30;100475.28;5014267;28;20050;-69
2022/08/20 08:06:44;;;;;;;12.70;3.85;;;;;;;21.88;32.24;100496.03;5014294;28;20050;-69
2022/08/20 08:09:13;;;;;;;11.40;4.13;;;;;;;21.86;32.47;100487.09;5014212;28;20065;-70
2022/08/20 08:11:48;;;;;;;21.58;4.72;;;;;;;21.70;32.46;100473.09;5014021;28;20062;-69
2022/08/20 08:14:22;;;;;;;13.32;3.92;;;;;;;21.60;32.61;100493.59;5013781;28;20049;-69
2022/08/20 08:16:50;;;;;;;9.02;3.72;;;;;;;21.48;32.80;100485.34;5014066;28;20531;-69
2022/08/20 08:19:20;;;;;;;19.17;4.10;;;;;;;21.45;33.15;100498.25;5013874;28;20066;-73
2022/08/20 08:21:48;;;;;;;14.35;4.28;;;;;;;21.28;33.14;100497.97;5014290;28;20057;-73
2022/08/20 08:24:18;;;;;;;17.92;8.40;;;;;;;21.23;33.48;100492.66;4995699;28;20062;-73
2022/08/20 08:26:52;;;;;;;9.90;4.30;;;;;;;21.24;33.38;100491.44;4994140;28;20113;-73
2022/08/20 08:29:19;;;;;;;18.35;4.45;;;;;;;21.21;33.68;100501.53;4994290;28;20054;-74
2022/08/20 08:31:46;;;;;;;19.48;5.28;;;;;;;21.16;33.49;100492.53;4994203;28;20198;-73
2022/08/20 08:34:15;;;;;;;11.20;5.25;;;;;;;21.13;33.92;100490.47;4976439;28;20055;-72
2022/08/20 08:36:43;;;;;;;14.68;4.50;;;;;;;21.08;33.88;100510.63;5011833;28;20062;-74
2022/08/20 08:39:10;;;;;;;13.60;4.45;;;;;;;21.01;33.80;100496.34;5007285;28;20156;-73
2022/08/20 08:41:46;;;;;;;10.75;4.53;;;;;;;21.02;33.79;100512.13;4994202;28;20062;-73
2022/08/20 08:44:38;;;;;;;11.95;5.35;;;;;;;20.97;33.67;100503.94;4993507;28;20509;-73
2022/08/20 08:47:19;;;;;;;12.52;5.05;;;;;;;20.97;33.95;100509.59;4994243;28;20148;-74
2022/08/20 08:49:47;;;;;;;16.50;4.88;;;;;;;20.97;34.00;100516.09;4999510;28;20054;-73
2022/08/20 08:52:21;;;;;;;11.63;4.50;;;;;;;20.92;34.06;100524.03;4996351;28;20088;-74
2022/08/20 08:54:53;;;;;;;14.07;5.00;;;;;;;20.88;33.96;100512.69;5013622;28;20112;-73
2022/08/20 08:57:20;;;;;;;18.80;5.82;;;;;;;20.88;34.07;100509.84;5013344;28;20119;-75
2022/08/20 08:59:55;;;;;;;12.77;5.32;;;;;;;20.89;34.14;100505.00;4995603;28;20539;-74
2022/08/20 09:02:34;;;;;;;14.82;4.90;;;;;;;20.89;34.19;100502.16;5013393;28;20058;-74
2022/08/20 09:05:12;;;;;;;16.52;5.28;;;;;;;20.95;34.25;100517.66;4995691;28;20424;-73
2022/08/20 09:07:50;;;;;;;23.92;10.63;;;;;;;20.96;34.40;100508.00;5013621;28;20057;-74
2022/08/20 09:10:20;;;;;;;13.95;6.53;;;;;;;20.95;34.49;100520.47;5012973;28;20081;-75
2022/08/20 09:12:49;;;;;;;16.90;5.90;;;;;;;20.90;34.56;100515.13;5012737;28;20140;-73
2022/08/20 09:15:18;;;;;;;15.27;6.00;;;;;;;20.92;34.70;100518.38;5013176;28;20116;-74
2022/08/20 09:17:45;;;;;;;21.65;5.72;;;;;;;20.92;35.14;100504.22;5013483;28;20054;-73
2022/08/20 09:20:12;;;;;;;19.45;7.97;;;;;;;20.93;35.08;100534.19;5012850;28;20058;-73
2022/08/20 09:22:39;;;;;;;17.58;6.93;;;;;;;20.78;35.51;100520.97;5013219;28;20054;-74
2022/08/20 09:25:07;;;;;;;18.23;7.57;;;;;;;20.72;35.68;100519.66;5022379;28;20459;-74
2022/08/20 09:27:34;;;;;;;17.13;8.02;;;;;;;20.71;36.03;100518.00;5033054;28;20057;-74
2022/08/20 09:30:02;;;;;;;17.83;8.90;;;;;;;20.65;36.28;100513.84;4993793;28;20502;-74
2022/08/20 09:32:28;;;;;;;20.17;9.32;;;;;;;20.64;36.71;100515.06;4975489;28;20061;-74
2022/08/20 09:34:55;;;;;;;23.10;9.85;;;;;;;20.61;37.17;100512.97;4996451;28;20045;-75
2022/08/20 09:37:26;;;;;;;20.30;9.65;;;;;;;20.60;37.52;100509.34;5012941;28;20053;-74
2022/08/20 09:39:53;;;;;;;21.73;9.20;;;;;;;20.58;37.73;100513.75;5012913;28;20520;-75
2022/08/20 09:42:31;;;;;;;20.80;9.55;;;;;;;20.52;38.20;100509.59;5013049;28;20065;-74
2022/08/20 09:45:05;;;;;;;27.60;9.45;;;;;;;20.44;38.71;100513.47;5012593;28;20141;-74
2022/08/20 09:47:38;;;;;;;15.73;9.50;;;;;;;20.42;39.38;100511.00;5013067;28;20064;-74
2022/08/20 09:50:27;;;;;;;17.92;9.60;;;;;;;20.43;39.62;100520.31;5012943;28;20144;-73
2022/08/20 09:52:56;;;;;;;22.60;9.98;;;;;;;20.39;40.24;100510.94;5012395;28;20065;-75
2022/08/20 09:55:25;;;;;;;27.63;9.75;;;;;;;20.37;40.32;100519.00;5012771;28;20062;-75
2022/08/20 09:57:53;;;;;;;24.40;11.15;;;;;;;20.23;41.18;100502.56;5016371;28;20425;-74
2022/08/20 10:00:20;;;;;;;20.25;10.43;;;;;;;20.08;41.47;100502.63;5016703;28;20054;-73
2022/08/20 10:02:47;;;;;;;22.05;11.70;;;;;;;20.00;41.79;100490.38;4999490;28;20398;-74
2022/08/20 10:05:14;;;;;;;23.75;11.00;;;;;;;19.98;41.99;100477.81;5024551;28;20056;-74
2022/08/20 10:07:41;;;;;;;27.98;12.45;;;;;;;19.90;42.30;100469.19;5036034;28;20053;-74
2022/08/20 10:10:11;;;;;;;23.58;12.02;;;;;;;19.87;42.47;100467.09;5036201;28;20065;-75
2022/08/20 10:12:40;;;;;;;25.35;11.32;;;;;;;19.84;42.93;100459.38;5036269;28;20057;-74
2022/08/20 10:15:08;;;;;;;18.93;11.23;;;;;;;19.79;43.10;100456.88;5018373;28;20065;-75
2022/08/20 10:17:40;;;;;;;28.45;11.18;;;;;;;19.75;43.13;100455.97;5026598;28;20277;-73
2022/08/20 10:20:09;;;;;;;19.42;9.85;;;;;;;19.73;43.26;100478.13;4997042;28;20531;-74
2022/08/20 10:22:36;;;;;;;28.10;11.50;;;;;;;19.71;43.45;100480.50;4996991;28;20526;-74
2022/08/20 10:25:04;;;;;;;22.33;10.70;;;;;;;19.66;43.70;100492.06;4996823;28;20069;-75
2022/08/20 10:27:32;;;;;;;22.30;10.90;;;;;;;19.62;43.46;100499.66;4996658;28;20058;-74
2022/08/20 10:29:59;;;;;;;21.92;11.70;;;;;;;19.58;43.19;100486.66;4996551;28;20160;-73
2022/08/20 10:32:25;;;;;;;21.67;10.57;;;;;;;19.73;42.99;100495.06;4979236;28;20058;-72
2022/08/20 10:34:52;;;;;;;18.00;10.95;;;;;;;19.72;42.32;100510.34;4999205;28;20060;-73
2022/08/20 10:37:22;;;;;;;20.85;11.40;;;;;;;19.71;42.45;100503.06;5016189;28;20092;-73
2022/08/20 10:39:49;;;;;;;;;;;;;;;19.58;42.39;100492.28;5016600;28;20061;-73
2022/08/20 10:42:16;;;;;;;25.67;10.63;;;;;;;19.62;42.44;100496.84;5015870;28;19948;-73
2022/08/20 10:44:43;;;;;;;16.83;9.15;;;;;;;19.67;42.30;100490.91;5015842;28;20049;-73
2022/08/20 10:47:21;;;;;;;19.50;9.50;;;;;;;19.66;42.39;100494.09;5015601;28;20062;-73
2022/08/20 10:49:50;;;;;;;19.98;9.95;;;;;;;19.59;42.40;100486.28;5015842;28;20057;-68
2022/08/20 10:52:17;;;;;;;18.35;9.82;;;;;;;19.66;42.38;100489.25;4998084;28;20049;-69
2022/08/20 10:54:45;;;;;;;21.10;8.40;;;;;;;19.74;42.42;100485.41;5015651;28;20501;-69
2022/08/20 10:57:18;;;;;;;15.40;8.40;;;;;;;19.77;42.07;100483.81;4998116;28;20053;-69
2022/08/20 10:59:48;;;;;;;15.45;9.07;;;;;;;19.78;42.17;100489.09;5015224;28;20061;-69
2022/08/20 11:02:17;;;;;;;19.92;10.70;;;;;;;19.83;41.93;100488.81;5015439;28;20061;-69
2022/08/20 11:04:44;;;;;;;16.40;8.40;;;;;;;19.87;41.89;100483.25;5015212;28;20049;-68
2022/08/20 11:07:15;;;;;;;12.65;7.00;;;;;;;19.93;41.55;100482.56;5007111;28;20059;-70
2022/08/20 11:09:42;;;;;;;16.58;9.05;;;;;;;20.02;41.47;100481.53;4995590;28;20057;-69
2022/08/20 11:12:09;;;;;;;22.08;7.57;;;;;;;20.11;41.13;100465.16;4995853;28;20144;-69
2022/08/20 11:14:36;;;;;;;16.92;6.65;;;;;;;20.16;41.05;100481.84;4995626;28;20046;-68
2022/08/20 11:17:04;;;;;;;13.50;7.25;;;;;;;20.13;40.72;100474.13;4977890;28;20403;-68
2022/08/20 11:19:31;;;;;;;20.25;7.22;;;;;;;20.25;40.53;100460.63;4995478;28;20058;-70
2022/08/20 11:21:58;;;;;;;15.07;6.63;;;;;;;20.34;40.56;100463.22;4995998;28;20054;-73
2022/08/20 11:24:25;;;;;;;14.48;7.20;;;;;;;20.47;40.11;100467.47;4999975;28;20061;-74
2022/08/20 11:26:52;;;;;;;23.42;9.45;;;;;;;20.61;39.72;100456.44;5015039;28;20058;-74
2022/08/20 11:29:21;;;;;;;12.18;6.65;;;;;;;20.67;39.35;100452.09;5014975;28;20513;-74
2022/08/20 11:31:48;;;;;;;15.07;7.30;;;;;;;20.74;39.09;100446.56;4997728;28;20167;-74